createdAt,value
2023-03-06T00:00:31.263Z,12.03
2023-03-06T00:02:58.148Z,10.43
2023-03-06T00:05:25.218Z,9.70
2023-03-06T00:07:52.318Z,10.17
2023-03-06T00:10:22.163Z,10.27
2023-03-06T00:12:52.434Z,9.73
2023-03-06T00:15:19.403Z,9.50
2023-03-06T00:17:46.478Z,9.67
2023-03-06T00:20:13.948Z,8.67
2023-03-06T00:22:41.035Z,8.93
2023-03-06T00:25:08.924Z,9.07
2023-03-06T00:27:35.956Z,8.57
2023-03-06T00:30:03.038Z,9.40
2023-03-06T00:32:30.185Z,8.93
2023-03-06T00:34:57.238Z,8.67
2023-03-06T00:37:25.078Z,9.43
2023-03-06T00:39:52.494Z,9.53
2023-03-06T00:42:19.595Z,9.10
2023-03-06T00:44:46.296Z,9.67
2023-03-06T00:47:13.613Z,9.87
2023-03-06T00:49:40.649Z,8.37
2023-03-06T00:52:07.268Z,8.43
2023-03-06T00:54:34.385Z,8.77
2023-03-06T00:57:01.557Z,8.70
2023-03-06T00:59:28.624Z,8.80
2023-03-06T01:01:55.345Z,8.50
2023-03-06T01:04:22.475Z,8.67
2023-03-06T01:06:49.498Z,8.83
2023-03-06T01:09:16.346Z,8.60
2023-03-06T01:11:43.426Z,8.00
2023-03-06T01:14:11.184Z,7.97
2023-03-06T01:16:37.881Z,8.50
2023-03-06T01:19:05.111Z,8.17
2023-03-06T01:21:31.743Z,8.10
2023-03-06T01:23:59.029Z,8.33
2023-03-06T01:26:26.087Z,8.17
2023-03-06T01:28:52.728Z,8.13
2023-03-06T01:31:19.813Z,7.73
2023-03-06T01:33:46.877Z,8.07
2023-03-06T01:36:14.546Z,8.10
2023-03-06T01:38:41.215Z,8.23
2023-03-06T01:41:08.431Z,7.53
2023-03-06T01:43:37.869Z,7.77
2023-03-06T01:46:29.155Z,7.93
2023-03-06T01:49:00.727Z,7.73
2023-03-06T01:51:32.995Z,7.77
2023-03-06T01:54:04.011Z,7.40
2023-03-06T01:56:31.095Z,9.37
2023-03-06T01:58:58.728Z,9.57
2023-03-06T02:01:26.075Z,8.70
2023-03-06T02:03:53.542Z,9.10
2023-03-06T02:06:21.774Z,8.17
2023-03-06T02:08:51.044Z,8.30
2023-03-06T02:11:21.075Z,9.13
2023-03-06T02:13:49.461Z,9.40
2023-03-06T02:16:26.358Z,8.90
2023-03-06T02:18:54.006Z,9.53
2023-03-06T02:21:27.144Z,8.77
2023-03-06T02:23:54.146Z,9.50
2023-03-06T02:26:22.258Z,8.97
2023-03-06T02:28:49.416Z,8.83
2023-03-06T02:31:28.554Z,9.07
2023-03-06T02:34:14.247Z,9.80
2023-03-06T02:36:53.704Z,9.60
2023-03-06T02:39:24.122Z,9.50
2023-03-06T02:41:51.810Z,8.73
2023-03-06T02:44:21.003Z,11.70
2023-03-06T02:46:48.033Z,10.27
2023-03-06T02:49:15.118Z,10.33
2023-03-06T02:51:42.163Z,10.97
2023-03-06T02:54:09.214Z,10.67
2023-03-06T02:56:36.287Z,11.17
2023-03-06T02:59:03.098Z,10.70
2023-03-06T03:01:30.780Z,11.53
2023-03-06T03:03:57.423Z,11.63
2023-03-06T03:06:24.580Z,11.43
2023-03-06T03:08:51.818Z,10.87
2023-03-06T03:11:18.945Z,11.93
2023-03-06T03:13:45.567Z,11.63
2023-03-06T03:16:17.532Z,11.27
2023-03-06T03:18:47.630Z,12.30
2023-03-06T03:21:16.348Z,12.43
2023-03-06T03:23:44.543Z,12.70
2023-03-06T03:26:17.252Z,12.53
2023-03-06T03:28:49.422Z,11.43
2023-03-06T03:31:19.079Z,12.20
2023-03-06T03:33:46.198Z,13.40
2023-03-06T03:36:13.687Z,12.37
2023-03-06T03:38:44.788Z,11.70
2023-03-06T03:41:11.758Z,12.27
2023-03-06T03:43:38.829Z,11.90
2023-03-06T03:46:06.073Z,12.43
2023-03-06T03:48:33.367Z,12.83
2023-03-06T03:51:08.998Z,12.70
2023-03-06T03:53:39.486Z,12.53
2023-03-06T03:56:07.988Z,13.53
2023-03-06T03:58:41.702Z,14.13
2023-03-06T04:01:08.778Z,12.53
2023-03-06T04:03:36.882Z,14.07
2023-03-06T04:06:04.975Z,14.30
2023-03-06T04:08:32.151Z,15.53
2023-03-06T04:10:59.349Z,13.77
2023-03-06T04:13:26.829Z,13.00
2023-03-06T04:15:55.308Z,14.07
2023-03-06T04:18:23.636Z,15.53
2023-03-06T04:20:52.412Z,14.00
2023-03-06T04:23:19.804Z,14.33
2023-03-06T04:25:47.436Z,14.90
2023-03-06T04:28:14.611Z,15.03
2023-03-06T04:30:42.145Z,13.07
2023-03-06T04:33:09.403Z,13.63
2023-03-06T04:35:37.364Z,13.93
2023-03-06T04:38:09.108Z,15.07
2023-03-06T04:40:36.546Z,13.20
2023-03-06T04:43:04.560Z,14.20
2023-03-06T04:45:32.061Z,14.70
2023-03-06T04:47:59.118Z,13.33
2023-03-06T04:50:28.237Z,13.20
2023-03-06T04:52:54.905Z,14.47
2023-03-06T04:55:21.962Z,13.30
2023-03-06T04:57:49.188Z,14.93
2023-03-06T05:00:19.301Z,15.07
2023-03-06T05:02:46.424Z,14.77
2023-03-06T05:05:13.979Z,14.30
2023-03-06T05:07:40.993Z,14.73
2023-03-06T05:10:11.506Z,14.63
2023-03-06T05:12:39.326Z,14.00
2023-03-06T05:15:07.415Z,13.27
2023-03-06T05:17:34.530Z,13.83
2023-03-06T05:20:01.242Z,14.30
2023-03-06T05:22:27.841Z,13.60
2023-03-06T05:24:54.909Z,13.97
2023-03-06T05:27:21.988Z,12.37
2023-03-06T05:29:49.052Z,11.30
2023-03-06T05:32:16.814Z,11.30
2023-03-06T05:34:43.934Z,10.30
2023-03-06T05:37:11.023Z,10.63
2023-03-06T05:39:38.252Z,11.20
2023-03-06T05:42:05.417Z,11.43
2023-03-06T05:44:33.544Z,9.70
2023-03-06T05:47:00.362Z,10.57
2023-03-06T05:49:30.996Z,11.23
2023-03-06T05:51:58.066Z,11.63
2023-03-06T05:54:26.261Z,12.03
2023-03-06T05:56:53.498Z,12.10
2023-03-06T05:59:20.538Z,12.03
2023-03-06T06:01:47.547Z,11.87
2023-03-06T06:04:14.572Z,11.53
2023-03-06T06:06:41.184Z,11.40
2023-03-06T06:09:07.826Z,12.23
2023-03-06T06:11:34.895Z,12.20
2023-03-06T06:14:02.007Z,11.23
2023-03-06T06:16:28.582Z,11.50
2023-03-06T06:18:55.607Z,11.00
2023-03-06T06:21:22.666Z,11.27
2023-03-06T06:23:49.686Z,10.33
2023-03-06T06:26:16.350Z,10.70
2023-03-06T06:28:43.368Z,8.93
2023-03-06T06:31:12.029Z,9.57
2023-03-06T06:33:40.469Z,9.20
2023-03-06T06:36:21.467Z,8.37
2023-03-06T06:38:49.004Z,9.93
2023-03-06T06:41:42.290Z,9.10
2023-03-06T06:44:08.616Z,8.47
2023-03-06T06:49:22.942Z,8.73
2023-03-06T06:51:49.986Z,8.60
2023-03-06T06:54:18.594Z,9.17
2023-03-06T06:56:45.634Z,8.53
2023-03-06T06:59:17.361Z,7.53
2023-03-06T07:01:44.771Z,8.20
2023-03-06T07:04:13.564Z,7.90
2023-03-06T07:06:40.659Z,8.53
2023-03-06T07:09:07.465Z,7.60
2023-03-06T07:11:34.520Z,7.13
2023-03-06T07:14:01.963Z,6.50
2023-03-06T07:16:28.583Z,7.20
2023-03-06T07:18:55.610Z,7.57
2023-03-06T07:21:22.695Z,7.00
2023-03-06T07:23:49.812Z,8.10
2023-03-06T07:26:16.839Z,7.33
2023-03-06T07:28:52.296Z,8.00
2023-03-06T07:31:23.833Z,7.83
2023-03-06T07:33:51.727Z,8.27
2023-03-06T07:36:19.039Z,8.60
2023-03-06T07:38:46.135Z,9.00
2023-03-06T07:41:13.818Z,10.07
2023-03-06T07:43:41.723Z,10.30
2023-03-06T07:46:09.310Z,9.33
2023-03-06T07:48:37.602Z,10.17
2023-03-06T07:51:15.909Z,10.03
2023-03-06T07:53:43.024Z,10.13
2023-03-06T07:56:11.733Z,10.23
2023-03-06T07:58:40.665Z,10.10
2023-03-06T08:01:09.709Z,9.97
2023-03-06T08:03:37.352Z,10.03
2023-03-06T08:06:13.469Z,9.43
2023-03-06T08:08:42.118Z,9.47
2023-03-06T08:11:10.827Z,9.50
2023-03-06T08:13:38.206Z,11.13
2023-03-06T08:16:05.809Z,10.27
2023-03-06T08:18:32.554Z,10.73
2023-03-06T08:21:04.586Z,10.10
2023-03-06T08:23:31.948Z,8.97
2023-03-06T08:25:59.997Z,8.97
2023-03-06T08:28:26.855Z,8.57
2023-03-06T08:30:53.907Z,10.20
2023-03-06T08:33:20.965Z,9.63
2023-03-06T08:35:47.881Z,8.10
2023-03-06T08:38:15.025Z,8.27
2023-03-06T08:40:42.079Z,7.67
2023-03-06T08:43:12.333Z,8.00
2023-03-06T08:45:40.267Z,7.70
2023-03-06T08:48:07.332Z,7.73
2023-03-06T08:50:33.983Z,7.17
2023-03-06T08:53:01.080Z,7.60
2023-03-06T08:55:28.245Z,8.10
2023-03-06T08:57:54.935Z,7.50
2023-03-06T09:00:22.087Z,8.17
2023-03-06T09:02:49.151Z,8.57
2023-03-06T09:05:16.262Z,8.93
2023-03-06T09:07:43.316Z,8.37
2023-03-06T09:10:17.761Z,8.87
2023-03-06T09:12:50.487Z,7.97
2023-03-06T09:15:19.026Z,8.40
2023-03-06T09:17:45.822Z,8.23
2023-03-06T09:20:13.127Z,8.67
2023-03-06T09:22:42.270Z,8.97
2023-03-06T09:25:11.057Z,11.97
2023-03-06T09:27:38.093Z,11.07
2023-03-06T09:30:05.406Z,9.37
2023-03-06T09:32:32.489Z,8.80
2023-03-06T09:34:59.618Z,10.30
2023-03-06T09:37:26.629Z,10.50
2023-03-06T09:39:53.683Z,9.90
2023-03-06T09:42:23.413Z,9.43
2023-03-06T09:44:59.039Z,10.10
2023-03-06T09:47:41.688Z,9.67
2023-03-06T09:50:11.320Z,10.13
2023-03-06T09:53:08.848Z,10.43
2023-03-06T09:55:40.943Z,10.97
2023-03-06T09:58:16.645Z,12.27
2023-03-06T10:01:13.959Z,11.10
2023-03-06T10:03:52.619Z,12.33
2023-03-06T10:06:32.953Z,11.20
2023-03-06T10:09:13.064Z,12.07
2023-03-06T10:11:55.587Z,13.63
2023-03-06T10:14:42.680Z,13.43
2023-03-06T10:17:17.698Z,12.70
2023-03-06T10:19:44.772Z,12.00
2023-03-06T10:22:46.072Z,13.17
2023-03-06T10:25:33.049Z,13.17
2023-03-06T10:28:00.160Z,14.83
2023-03-06T10:30:52.716Z,13.43
2023-03-06T10:33:37.640Z,15.03
2023-03-06T10:36:04.849Z,14.73
2023-03-06T10:38:31.919Z,15.70
2023-03-06T10:41:10.406Z,14.17
2023-03-06T10:43:38.598Z,15.30
2023-03-06T10:46:07.771Z,15.73
2023-03-06T10:48:36.885Z,14.73
2023-03-06T10:51:20.029Z,15.10
2023-03-06T10:53:54.375Z,15.23
2023-03-06T10:56:36.411Z,14.97
2023-03-06T10:59:17.143Z,14.07
2023-03-06T11:01:49.302Z,14.93
2023-03-06T11:04:29.263Z,14.67
2023-03-06T11:07:14.560Z,14.97
2023-03-06T11:09:58.114Z,15.83
2023-03-06T11:12:27.071Z,14.03
2023-03-06T11:15:21.019Z,14.63
2023-03-06T11:17:59.377Z,14.73
2023-03-06T11:20:51.438Z,10.43
2023-03-06T11:23:39.269Z,11.63
2023-03-06T11:26:17.944Z,10.30
2023-03-06T11:29:26.333Z,12.23
2023-03-06T11:32:00.290Z,10.97
2023-03-06T11:34:54.548Z,10.03
2023-03-06T11:37:33.893Z,10.10
2023-03-06T11:40:17.503Z,9.23
2023-03-06T11:43:07.238Z,8.20
2023-03-06T11:45:42.285Z,7.20
2023-03-06T11:48:09.331Z,4.80
2023-03-06T11:50:41.198Z,4.70
2023-03-06T11:53:14.676Z,5.43
2023-03-06T11:56:00.373Z,4.80
2023-03-06T11:58:53.537Z,5.00
2023-03-06T12:01:38.782Z,4.57
2023-03-06T12:04:33.201Z,4.57
2023-03-06T12:07:15.474Z,3.77
2023-03-06T12:09:48.526Z,3.17
2023-03-06T12:12:40.214Z,3.63
2023-03-06T12:15:44.483Z,3.80
2023-03-06T12:18:16.964Z,3.50
2023-03-06T12:20:47.769Z,2.83
2023-03-06T12:23:40.132Z,2.97
2023-03-06T12:26:07.256Z,2.80
2023-03-06T12:28:52.390Z,13.57
2023-03-06T12:31:19.530Z,3.40
2023-03-06T12:33:56.235Z,3.80
2023-03-06T12:36:52.237Z,2.43
2023-03-06T12:39:50.317Z,2.10
2023-03-06T12:42:44.348Z,2.10
2023-03-06T12:45:25.482Z,2.60
2023-03-06T12:47:56.580Z,3.33
2023-03-06T12:50:36.965Z,2.33
2023-03-06T12:53:07.204Z,1.47
2023-03-06T12:55:41.587Z,1.40
2023-03-06T12:58:30.234Z,13.27
2023-03-06T13:01:20.040Z,1.40
2023-03-06T13:04:23.543Z,1.47
2023-03-06T13:06:51.474Z,10.43
2023-03-06T13:09:32.036Z,1.97
2023-03-06T13:12:37.793Z,2.37
2023-03-06T13:15:29.243Z,2.93
2023-03-06T13:17:56.808Z,2.10
2023-03-06T13:20:23.830Z,2.50
2023-03-06T13:22:50.864Z,2.50
2023-03-06T13:25:17.918Z,2.40
2023-03-06T13:27:53.311Z,2.10
2023-03-06T13:30:28.333Z,1.73
2023-03-06T13:32:56.122Z,2.07
2023-03-06T13:35:35.812Z,1.90
2023-03-06T13:38:03.197Z,1.73
2023-03-06T13:40:34.998Z,1.97
2023-03-06T13:43:02.189Z,2.37
2023-03-06T13:45:41.840Z,3.03
2023-03-06T13:48:45.757Z,3.03
2023-03-06T13:51:25.240Z,2.70
2023-03-06T13:54:29.583Z,2.83
2023-03-06T13:57:18.152Z,3.10
2023-03-06T14:00:15.594Z,4.77
2023-03-06T14:03:03.994Z,5.13
2023-03-06T14:05:48.586Z,3.90
2023-03-06T14:08:16.184Z,2.73
2023-03-06T14:10:45.283Z,2.93
2023-03-06T14:13:26.620Z,2.47
2023-03-06T14:15:57.009Z,2.63
2023-03-06T14:18:29.451Z,2.43
2023-03-06T14:21:03.448Z,2.33
2023-03-06T14:23:37.942Z,2.17
2023-03-06T14:26:19.922Z,2.87
2023-03-06T14:28:59.071Z,2.70
2023-03-06T14:31:35.917Z,2.80
2023-03-06T14:34:08.075Z,2.20
2023-03-06T14:36:36.294Z,2.80
2023-03-06T14:39:11.212Z,2.50
2023-03-06T14:41:38.677Z,2.40
2023-03-06T14:44:26.381Z,2.70
2023-03-06T14:46:55.560Z,3.20
2023-03-06T14:49:25.148Z,3.40
2023-03-06T14:51:55.081Z,2.90
2023-03-06T14:54:27.064Z,3.07
2023-03-06T14:56:59.886Z,3.93
2023-03-06T14:59:30.319Z,3.10
2023-03-06T15:02:01.325Z,3.20
2023-03-06T15:04:53.016Z,2.63
2023-03-06T15:07:24.902Z,2.07
2023-03-06T15:09:53.712Z,2.60
2023-03-06T15:12:22.576Z,2.70
2023-03-06T15:15:01.553Z,2.80
2023-03-06T15:17:29.406Z,3.43
2023-03-06T15:19:59.157Z,3.47
2023-03-06T15:22:26.294Z,2.63
2023-03-06T15:24:54.065Z,2.60
2023-03-06T15:27:28.814Z,3.13
2023-03-06T15:30:22.138Z,2.63
2023-03-06T15:32:48.712Z,2.90
2023-03-06T15:35:24.550Z,2.67
2023-03-06T15:37:52.337Z,2.47
2023-03-06T15:40:24.694Z,3.40
2023-03-06T15:42:51.730Z,3.00
2023-03-06T15:45:23.437Z,2.60
2023-03-06T15:47:52.914Z,2.77
2023-03-06T15:50:23.742Z,2.93
2023-03-06T15:52:50.790Z,3.87
2023-03-06T15:55:22.371Z,3.23
2023-03-06T15:57:55.293Z,4.10
2023-03-06T16:00:28.706Z,3.30
2023-03-06T16:02:59.072Z,3.83
2023-03-06T16:05:26.615Z,3.80
2023-03-06T16:07:53.481Z,3.37
2023-03-06T16:10:23.790Z,3.47
2023-03-06T16:12:54.207Z,3.60
2023-03-06T16:15:28.800Z,4.17
2023-03-06T16:17:56.982Z,4.30
2023-03-06T16:20:29.115Z,3.40
2023-03-06T16:22:56.433Z,4.00
2023-03-06T16:25:25.943Z,3.73
2023-03-06T16:27:58.433Z,4.97
2023-03-06T16:30:28.865Z,5.10
2023-03-06T16:32:56.204Z,4.23
2023-03-06T16:35:23.366Z,4.10
2023-03-06T16:37:50.392Z,3.23
2023-03-06T16:40:22.094Z,3.40
2023-03-06T16:42:50.555Z,4.17
2023-03-06T16:45:18.911Z,4.30
2023-03-06T16:47:46.936Z,4.40
2023-03-06T16:50:27.210Z,3.67
2023-03-06T16:52:55.653Z,4.40
2023-03-06T16:55:23.910Z,8.37
2023-03-06T16:57:51.041Z,7.30
2023-03-06T17:00:19.326Z,8.43
2023-03-06T17:02:49.114Z,7.23
2023-03-06T17:05:16.315Z,3.37
2023-03-06T17:07:43.610Z,4.80
2023-03-06T17:10:13.446Z,3.70
2023-03-06T17:12:40.551Z,4.00
2023-03-06T17:15:08.596Z,3.80
2023-03-06T17:17:35.968Z,3.73
2023-03-06T17:20:05.386Z,3.87
2023-03-06T17:22:36.449Z,3.73
2023-03-06T17:25:06.715Z,3.97
2023-03-06T17:27:34.064Z,5.40
2023-03-06T17:30:01.148Z,3.73
2023-03-06T17:32:28.415Z,3.90
2023-03-06T17:34:55.464Z,3.93
2023-03-06T17:37:22.597Z,9.50
2023-03-06T17:39:49.715Z,4.10
2023-03-06T17:42:16.844Z,3.87
2023-03-06T17:44:43.458Z,3.60
2023-03-06T17:47:10.223Z,4.57
2023-03-06T17:49:37.248Z,6.87
2023-03-06T17:52:05.640Z,4.97
2023-03-06T17:54:33.252Z,4.67
2023-03-06T17:57:03.282Z,3.93
2023-03-06T17:59:31.886Z,4.20
2023-03-06T18:01:59.276Z,5.10
2023-03-06T18:04:26.659Z,4.50
2023-03-06T18:06:53.822Z,5.73
2023-03-06T18:09:20.488Z,7.17
2023-03-06T18:11:47.635Z,6.80
2023-03-06T18:14:14.272Z,5.70
2023-03-06T18:16:41.562Z,4.97
2023-03-06T18:19:11.137Z,6.63
2023-03-06T18:21:39.054Z,5.87
2023-03-06T18:24:06.317Z,6.70
2023-03-06T18:26:33.464Z,5.87
2023-03-06T18:29:03.645Z,5.93
2023-03-06T18:31:34.658Z,5.60
2023-03-06T18:34:04.959Z,5.83
2023-03-06T18:36:33.009Z,6.13
2023-03-06T18:39:03.509Z,10.23
2023-03-06T18:41:31.218Z,12.50
2023-03-06T18:43:59.887Z,46.17
2023-03-06T18:46:30.342Z,50.13
2023-03-06T18:48:57.390Z,31.80
2023-03-06T18:51:24.560Z,19.07
2023-03-06T18:53:51.670Z,5.70
2023-03-06T18:56:20.714Z,5.43
2023-03-06T18:58:48.257Z,7.93
2023-03-06T19:01:15.029Z,7.70
2023-03-06T19:03:42.092Z,8.63
2023-03-06T19:06:11.439Z,13.03
2023-03-06T19:08:39.412Z,19.90
2023-03-06T19:11:08.696Z,14.13
2023-03-06T19:13:35.913Z,8.50
2023-03-06T19:16:03.203Z,8.03
2023-03-06T19:18:30.247Z,12.93
2023-03-06T19:21:08.486Z,9.70
2023-03-06T19:23:35.528Z,9.07
2023-03-06T19:26:02.534Z,8.50
2023-03-06T19:28:29.704Z,8.43
2023-03-06T19:30:56.961Z,8.73
2023-03-06T19:33:24.012Z,9.10
2023-03-06T19:35:50.856Z,10.33
2023-03-06T19:38:17.936Z,9.27
2023-03-06T19:40:51.016Z,9.63
2023-03-06T19:43:18.099Z,8.67
2023-03-06T19:45:44.861Z,9.13
2023-03-06T19:48:12.466Z,9.83
2023-03-06T19:50:42.014Z,8.83
2023-03-06T19:53:10.941Z,9.43
2023-03-06T19:55:38.389Z,8.97
2023-03-06T19:58:05.438Z,9.00
2023-03-06T20:00:32.747Z,9.57
2023-03-06T20:02:59.900Z,9.90
2023-03-06T20:05:27.077Z,7.93
2023-03-06T20:07:54.128Z,9.07
2023-03-06T20:10:21.236Z,8.90
2023-03-06T20:12:47.879Z,8.37
2023-03-06T20:15:14.909Z,7.57
2023-03-06T20:17:42.020Z,10.13
2023-03-06T20:20:10.293Z,10.33
2023-03-06T20:22:37.380Z,8.67
2023-03-06T20:25:05.095Z,8.97
2023-03-06T20:27:32.343Z,8.90
2023-03-06T20:29:59.454Z,9.30
2023-03-06T20:32:26.550Z,8.70
2023-03-06T20:34:53.651Z,9.50
2023-03-06T20:37:20.769Z,10.33
2023-03-06T20:39:47.989Z,8.90
2023-03-06T20:42:15.290Z,10.30
2023-03-06T20:44:42.391Z,10.33
2023-03-06T20:47:09.595Z,9.77
2023-03-06T20:49:36.662Z,9.80
2023-03-06T20:52:04.041Z,9.40
2023-03-06T20:54:31.240Z,9.77
2023-03-06T20:56:58.539Z,9.87
2023-03-06T20:59:25.326Z,10.43
2023-03-06T21:01:52.415Z,8.63
2023-03-06T21:04:19.640Z,10.93
2023-03-06T21:06:47.234Z,10.47
2023-03-06T21:09:16.565Z,10.50
2023-03-06T21:11:43.439Z,11.07
2023-03-06T21:14:12.217Z,11.10
2023-03-06T21:16:39.216Z,12.27
2023-03-06T21:19:06.417Z,11.70
2023-03-06T21:21:35.099Z,12.57
2023-03-06T21:24:02.468Z,10.67
2023-03-06T21:26:31.015Z,11.33
2023-03-06T21:29:00.978Z,10.80
2023-03-06T21:31:28.715Z,11.07
2023-03-06T21:33:56.537Z,12.23
2023-03-06T21:36:23.384Z,11.30
2023-03-06T21:38:51.799Z,11.40
2023-03-06T21:41:25.042Z,12.67
2023-03-06T21:43:56.810Z,10.80
2023-03-06T21:46:24.057Z,10.57
2023-03-06T21:48:51.099Z,10.97
2023-03-06T21:51:19.656Z,11.53
2023-03-06T21:53:47.649Z,11.60
2023-03-06T21:56:17.045Z,11.63
2023-03-06T21:58:44.385Z,10.80
2023-03-06T22:01:34.646Z,9.67
2023-03-06T22:04:01.522Z,13.00
2023-03-06T22:06:31.258Z,12.00
2023-03-06T22:08:59.497Z,10.17
2023-03-06T22:11:28.151Z,9.47
2023-03-06T22:13:55.445Z,10.83
2023-03-06T22:16:22.481Z,11.87
2023-03-06T22:18:51.258Z,9.83
2023-03-06T22:21:20.644Z,10.27
2023-03-06T22:23:52.139Z,10.40
2023-03-06T22:26:19.682Z,10.50
2023-03-06T22:28:47.026Z,10.53
2023-03-06T22:31:17.090Z,9.77
2023-03-06T22:33:44.306Z,12.17
2023-03-06T22:36:14.193Z,10.37
2023-03-06T22:38:43.731Z,10.57
2023-03-06T22:41:11.924Z,9.90
2023-03-06T22:43:38.845Z,10.70
2023-03-06T22:46:11.110Z,12.10
2023-03-06T22:48:38.276Z,11.00
2023-03-06T22:51:07.520Z,10.87
2023-03-06T22:53:34.298Z,10.33
2023-03-06T22:56:02.380Z,9.00
2023-03-06T22:58:34.405Z,10.77
2023-03-06T23:01:05.844Z,10.57
2023-03-06T23:03:32.942Z,9.37
2023-03-06T23:05:59.954Z,10.17
2023-03-06T23:08:27.063Z,8.87
2023-03-06T23:10:54.077Z,11.00
2023-03-06T23:13:39.945Z,10.07
2023-03-06T23:16:25.541Z,9.17
2023-03-06T23:19:11.356Z,8.87
2023-03-06T23:21:57.064Z,9.03
2023-03-06T23:24:42.568Z,8.30
2023-03-06T23:27:09.639Z,8.90
2023-03-06T23:29:36.742Z,8.10
2023-03-06T23:32:03.895Z,10.80
2023-03-06T23:34:30.963Z,10.37
2023-03-06T23:36:57.591Z,9.70
2023-03-06T23:39:24.887Z,10.07
2023-03-06T23:41:51.967Z,8.27
2023-03-06T23:44:19.104Z,9.17
2023-03-06T23:46:46.332Z,8.73
2023-03-06T23:49:12.935Z,8.87
2023-03-06T23:51:39.939Z,9.07
2023-03-06T23:54:06.989Z,8.43
2023-03-06T23:56:34.114Z,8.53
2023-03-06T23:59:01.165Z,8.13
